sensor_id;sensor_type;location;lat;lon;timestamp;temperature;humidity
48806;DHT22;34625;47.176;27.548;2023-03-26T00:00:39;20.80;55.20
48806;DHT22;34625;47.176;27.548;2023-03-26T00:03:11;20.80;55.30
48806;DHT22;34625;47.176;27.548;2023-03-26T00:05:38;20.60;55.20
48806;DHT22;34625;47.176;27.548;2023-03-26T00:08:04;20.70;55.30
48806;DHT22;34625;47.176;27.548;2023-03-26T00:10:30;20.60;55.30
48806;DHT22;34625;47.176;27.548;2023-03-26T00:12:56;20.60;55.30
48806;DHT22;34625;47.176;27.548;2023-03-26T00:15:22;20.60;55.50
48806;DHT22;34625;47.176;27.548;2023-03-26T00:17:47;20.60;55.50
48806;DHT22;34625;47.176;27.548;2023-03-26T00:20:13;20.60;55.50
48806;DHT22;34625;47.176;27.548;2023-03-26T00:22:39;20.70;55.60
48806;DHT22;34625;47.176;27.548;2023-03-26T00:25:06;20.60;55.50
48806;DHT22;34625;47.176;27.548;2023-03-26T00:27:32;20.60;55.50
48806;DHT22;34625;47.176;27.548;2023-03-26T00:29:59;20.70;55.60
48806;DHT22;34625;47.176;27.548;2023-03-26T00:32:28;20.60;55.50
48806;DHT22;34625;47.176;27.548;2023-03-26T00:34:55;20.70;55.60
48806;DHT22;34625;47.176;27.548;2023-03-26T00:37:22;20.80;55.50
48806;DHT22;34625;47.176;27.548;2023-03-26T00:39:54;20.70;55.50
48806;DHT22;34625;47.176;27.548;2023-03-26T00:42:24;20.70;55.50
48806;DHT22;34625;47.176;27.548;2023-03-26T00:44:50;20.70;55.50
48806;DHT22;34625;47.176;27.548;2023-03-26T00:47:22;20.70;55.40
48806;DHT22;34625;47.176;27.548;2023-03-26T00:49:48;20.60;55.30
48806;DHT22;34625;47.176;27.548;2023-03-26T00:52:15;20.80;55.30
48806;DHT22;34625;47.176;27.548;2023-03-26T00:54:44;20.70;55.40
48806;DHT22;34625;47.176;27.548;2023-03-26T00:57:10;20.70;55.40
48806;DHT22;34625;47.176;27.548;2023-03-26T00:59:40;20.60;55.30
48806;DHT22;34625;47.176;27.548;2023-03-26T01:02:07;20.60;55.40
48806;DHT22;34625;47.176;27.548;2023-03-26T01:04:35;20.60;55.40
48806;DHT22;34625;47.176;27.548;2023-03-26T01:07:15;20.60;55.50
48806;DHT22;34625;47.176;27.548;2023-03-26T01:09:43;20.50;55.60
48806;DHT22;34625;47.176;27.548;2023-03-26T01:12:12;20.60;55.60
48806;DHT22;34625;47.176;27.548;2023-03-26T01:14:40;20.60;55.60
48806;DHT22;34625;47.176;27.548;2023-03-26T01:17:06;20.50;55.60
48806;DHT22;34625;47.176;27.548;2023-03-26T01:22:18;20.40;55.60
48806;DHT22;34625;47.176;27.548;2023-03-26T01:24:45;20.50;55.80
48806;DHT22;34625;47.176;27.548;2023-03-26T01:30:01;20.50;55.90
48806;DHT22;34625;47.176;27.548;2023-03-26T01:32:39;20.50;55.90
48806;DHT22;34625;47.176;27.548;2023-03-26T01:40:23;20.50;56.00
48806;DHT22;34625;47.176;27.548;2023-03-26T01:42:53;20.50;55.90
48806;DHT22;34625;47.176;27.548;2023-03-26T01:45:22;20.50;55.90
48806;DHT22;34625;47.176;27.548;2023-03-26T01:47:50;20.60;55.90
48806;DHT22;34625;47.176;27.548;2023-03-26T01:50:17;20.50;55.80
48806;DHT22;34625;47.176;27.548;2023-03-26T01:52:43;20.60;55.80
48806;DHT22;34625;47.176;27.548;2023-03-26T01:55:09;20.50;55.90
48806;DHT22;34625;47.176;27.548;2023-03-26T02:10:27;20.50;55.90
48806;DHT22;34625;47.176;27.548;2023-03-26T02:12:54;20.50;55.90
48806;DHT22;34625;47.176;27.548;2023-03-26T02:15:20;20.50;56.10
48806;DHT22;34625;47.176;27.548;2023-03-26T02:17:47;20.40;55.90
48806;DHT22;34625;47.176;27.548;2023-03-26T02:20:14;20.30;56.00
48806;DHT22;34625;47.176;27.548;2023-03-26T02:22:41;20.30;56.00
48806;DHT22;34625;47.176;27.548;2023-03-26T02:25:12;20.40;56.10
48806;DHT22;34625;47.176;27.548;2023-03-26T02:27:39;20.40;56.10
48806;DHT22;34625;47.176;27.548;2023-03-26T02:30:11;20.40;56.10
48806;DHT22;34625;47.176;27.548;2023-03-26T02:32:37;20.30;56.10
48806;DHT22;34625;47.176;27.548;2023-03-26T02:35:04;20.30;56.30
48806;DHT22;34625;47.176;27.548;2023-03-26T02:37:31;20.20;56.30
48806;DHT22;34625;47.176;27.548;2023-03-26T02:40:09;20.30;56.40
48806;DHT22;34625;47.176;27.548;2023-03-26T02:42:37;20.30;56.40
48806;DHT22;34625;47.176;27.548;2023-03-26T02:45:04;20.20;56.30
48806;DHT22;34625;47.176;27.548;2023-03-26T02:47:56;20.30;56.40
48806;DHT22;34625;47.176;27.548;2023-03-26T02:50:44;20.30;56.40
48806;DHT22;34625;47.176;27.548;2023-03-26T02:53:33;20.30;56.40
48806;DHT22;34625;47.176;27.548;2023-03-26T02:56:19;20.30;56.40
48806;DHT22;34625;47.176;27.548;2023-03-26T02:59:11;20.30;56.40
48806;DHT22;34625;47.176;27.548;2023-03-26T03:01:39;20.20;56.20
48806;DHT22;34625;47.176;27.548;2023-03-26T03:04:09;20.30;56.30
48806;DHT22;34625;47.176;27.548;2023-03-26T03:06:35;20.20;56.20
48806;DHT22;34625;47.176;27.548;2023-03-26T03:09:04;20.30;56.20
48806;DHT22;34625;47.176;27.548;2023-03-26T03:11:53;20.30;56.30
48806;DHT22;34625;47.176;27.548;2023-03-26T03:14:19;20.30;56.30
48806;DHT22;34625;47.176;27.548;2023-03-26T03:16:45;20.20;56.30
48806;DHT22;34625;47.176;27.548;2023-03-26T03:19:11;20.20;56.30
48806;DHT22;34625;47.176;27.548;2023-03-26T03:21:39;20.20;56.40
48806;DHT22;34625;47.176;27.548;2023-03-26T03:24:06;20.20;56.40
48806;DHT22;34625;47.176;27.548;2023-03-26T03:26:40;20.20;56.40
48806;DHT22;34625;47.176;27.548;2023-03-26T03:29:29;20.20;56.40
48806;DHT22;34625;47.176;27.548;2023-03-26T03:31:59;20.10;56.40
48806;DHT22;34625;47.176;27.548;2023-03-26T03:34:36;20.10;56.40
48806;DHT22;34625;47.176;27.548;2023-03-26T03:37:04;20.10;56.40
48806;DHT22;34625;47.176;27.548;2023-03-26T03:39:38;20.00;56.40
48806;DHT22;34625;47.176;27.548;2023-03-26T03:42:04;20.10;56.50
48806;DHT22;34625;47.176;27.548;2023-03-26T03:44:31;20.00;56.40
48806;DHT22;34625;47.176;27.548;2023-03-26T03:46:57;20.10;56.50
48806;DHT22;34625;47.176;27.548;2023-03-26T03:49:23;20.10;56.50
48806;DHT22;34625;47.176;27.548;2023-03-26T03:51:50;20.10;56.50
48806;DHT22;34625;47.176;27.548;2023-03-26T03:54:31;20.20;56.40
48806;DHT22;34625;47.176;27.548;2023-03-26T03:57:20;20.10;56.40
48806;DHT22;34625;47.176;27.548;2023-03-26T03:59:57;20.30;56.50
48806;DHT22;34625;47.176;27.548;2023-03-26T04:02:25;20.30;56.40
48806;DHT22;34625;47.176;27.548;2023-03-26T04:04:58;20.30;56.40
48806;DHT22;34625;47.176;27.548;2023-03-26T04:07:25;20.30;56.40
48806;DHT22;34625;47.176;27.548;2023-03-26T04:10:13;20.20;56.20
48806;DHT22;34625;47.176;27.548;2023-03-26T04:12:58;20.20;56.20
48806;DHT22;34625;47.176;27.548;2023-03-26T04:15:44;20.30;56.20
48806;DHT22;34625;47.176;27.548;2023-03-26T04:18:10;20.30;56.10
48806;DHT22;34625;47.176;27.548;2023-03-26T04:20:37;20.20;56.10
48806;DHT22;34625;47.176;27.548;2023-03-26T04:23:06;20.20;56.10
48806;DHT22;34625;47.176;27.548;2023-03-26T04:25:33;20.10;56.20
48806;DHT22;34625;47.176;27.548;2023-03-26T04:31:05;20.20;56.20
48806;DHT22;34625;47.176;27.548;2023-03-26T04:33:36;20.20;56.30
48806;DHT22;34625;47.176;27.548;2023-03-26T04:36:04;20.10;56.20
48806;DHT22;34625;47.176;27.548;2023-03-26T04:38:36;20.00;56.30
48806;DHT22;34625;47.176;27.548;2023-03-26T04:41:04;20.10;56.40
48806;DHT22;34625;47.176;27.548;2023-03-26T04:43:58;20.10;56.50
48806;DHT22;34625;47.176;27.548;2023-03-26T04:46:32;20.10;56.50
48806;DHT22;34625;47.176;27.548;2023-03-26T04:49:11;20.10;56.50
48806;DHT22;34625;47.176;27.548;2023-03-26T04:51:38;20.00;56.40
48806;DHT22;34625;47.176;27.548;2023-03-26T04:54:15;20.10;56.70
48806;DHT22;34625;47.176;27.548;2023-03-26T04:56:53;19.90;56.60
48806;DHT22;34625;47.176;27.548;2023-03-26T04:59:31;20.00;56.60
48806;DHT22;34625;47.176;27.548;2023-03-26T05:02:05;20.00;56.50
48806;DHT22;34625;47.176;27.548;2023-03-26T05:04:40;20.10;56.60
48806;DHT22;34625;47.176;27.548;2023-03-26T05:07:09;20.10;56.50
48806;DHT22;34625;47.176;27.548;2023-03-26T05:09:43;20.20;56.50
48806;DHT22;34625;47.176;27.548;2023-03-26T05:12:14;20.10;56.50
48806;DHT22;34625;47.176;27.548;2023-03-26T05:15:02;20.00;56.30
48806;DHT22;34625;47.176;27.548;2023-03-26T05:17:51;20.20;56.30
48806;DHT22;34625;47.176;27.548;2023-03-26T05:20:26;20.20;56.20
48806;DHT22;34625;47.176;27.548;2023-03-26T05:22:54;20.30;56.30
48806;DHT22;34625;47.176;27.548;2023-03-26T05:25:29;20.40;56.10
48806;DHT22;34625;47.176;27.548;2023-03-26T05:27:56;20.30;56.10
48806;DHT22;34625;47.176;27.548;2023-03-26T05:30:25;20.20;55.90
48806;DHT22;34625;47.176;27.548;2023-03-26T05:32:56;20.20;55.90
48806;DHT22;34625;47.176;27.548;2023-03-26T05:35:27;20.20;55.70
48806;DHT22;34625;47.176;27.548;2023-03-26T05:37:54;20.40;55.80
48806;DHT22;34625;47.176;27.548;2023-03-26T05:40:22;20.40;55.50
48806;DHT22;34625;47.176;27.548;2023-03-26T05:42:55;20.40;55.30
48806;DHT22;34625;47.176;27.548;2023-03-26T05:45:41;20.40;54.50
48806;DHT22;34625;47.176;27.548;2023-03-26T05:48:21;20.40;55.20
48806;DHT22;34625;47.176;27.548;2023-03-26T05:50:50;20.40;54.80
48806;DHT22;34625;47.176;27.548;2023-03-26T05:53:17;20.60;54.90
48806;DHT22;34625;47.176;27.548;2023-03-26T05:56:02;20.40;54.00
48806;DHT22;34625;47.176;27.548;2023-03-26T05:58:51;20.40;54.70
48806;DHT22;34625;47.176;27.548;2023-03-26T06:01:36;20.30;54.70
48806;DHT22;34625;47.176;27.548;2023-03-26T06:04:15;20.40;54.20
48806;DHT22;34625;47.176;27.548;2023-03-26T06:06:49;20.30;54.90
48806;DHT22;34625;47.176;27.548;2023-03-26T06:09:17;20.40;55.40
48806;DHT22;34625;47.176;27.548;2023-03-26T06:11:44;20.50;55.30
48806;DHT22;34625;47.176;27.548;2023-03-26T06:14:10;20.40;55.00
48806;DHT22;34625;47.176;27.548;2023-03-26T06:16:40;20.50;55.00
48806;DHT22;34625;47.176;27.548;2023-03-26T06:19:20;20.50;54.90
48806;DHT22;34625;47.176;27.548;2023-03-26T06:21:53;20.50;55.00
48806;DHT22;34625;47.176;27.548;2023-03-26T06:24:40;20.40;55.00
48806;DHT22;34625;47.176;27.548;2023-03-26T06:27:24;20.50;55.20
48806;DHT22;34625;47.176;27.548;2023-03-26T06:30:10;20.50;55.20
48806;DHT22;34625;47.176;27.548;2023-03-26T06:32:55;20.40;55.10
48806;DHT22;34625;47.176;27.548;2023-03-26T06:35:24;20.40;55.20
48806;DHT22;34625;47.176;27.548;2023-03-26T06:37:50;20.60;55.30
48806;DHT22;34625;47.176;27.548;2023-03-26T06:40:16;20.40;55.30
48806;DHT22;34625;47.176;27.548;2023-03-26T06:43:14;20.40;55.20
48806;DHT22;34625;47.176;27.548;2023-03-26T06:46:09;20.50;55.20
48806;DHT22;34625;47.176;27.548;2023-03-26T06:48:55;20.50;55.20
48806;DHT22;34625;47.176;27.548;2023-03-26T06:51:49;20.60;55.20
48806;DHT22;34625;47.176;27.548;2023-03-26T06:54:34;20.60;55.00
48806;DHT22;34625;47.176;27.548;2023-03-26T06:57:08;20.80;54.80
48806;DHT22;34625;47.176;27.548;2023-03-26T07:00:04;20.80;54.80
48806;DHT22;34625;47.176;27.548;2023-03-26T07:02:48;20.90;54.70
48806;DHT22;34625;47.176;27.548;2023-03-26T07:05:33;20.80;54.60
48806;DHT22;34625;47.176;27.548;2023-03-26T07:08:19;20.90;54.70
48806;DHT22;34625;47.176;27.548;2023-03-26T07:11:04;20.80;54.50
48806;DHT22;34625;47.176;27.548;2023-03-26T07:13:58;20.90;54.60
48806;DHT22;34625;47.176;27.548;2023-03-26T07:16:39;20.90;54.60
48806;DHT22;34625;47.176;27.548;2023-03-26T07:19:24;21.00;54.50
48806;DHT22;34625;47.176;27.548;2023-03-26T07:21:51;20.90;54.40
48806;DHT22;34625;47.176;27.548;2023-03-26T07:24:35;20.90;54.30
48806;DHT22;34625;47.176;27.548;2023-03-26T07:35:40;21.00;54.10
48806;DHT22;34625;47.176;27.548;2023-03-26T07:44:23;21.00;53.90
48806;DHT22;34625;47.176;27.548;2023-03-26T07:47:19;21.00;53.90
48806;DHT22;34625;47.176;27.548;2023-03-26T07:50:12;20.90;53.90
48806;DHT22;34625;47.176;27.548;2023-03-26T07:53:07;20.90;53.90
48806;DHT22;34625;47.176;27.548;2023-03-26T07:56:15;21.00;53.80
48806;DHT22;34625;47.176;27.548;2023-03-26T08:15:34;21.00;53.60
48806;DHT22;34625;47.176;27.548;2023-03-26T08:20:45;21.10;53.50
48806;DHT22;34625;47.176;27.548;2023-03-26T08:30:51;21.20;53.10
48806;DHT22;34625;47.176;27.548;2023-03-26T08:33:20;21.30;53.10
48806;DHT22;34625;47.176;27.548;2023-03-26T08:35:46;21.40;52.90
48806;DHT22;34625;47.176;27.548;2023-03-26T08:38:15;21.40;53.00
48806;DHT22;34625;47.176;27.548;2023-03-26T08:48:39;21.40;52.80
48806;DHT22;34625;47.176;27.548;2023-03-26T08:53:44;21.40;52.80
48806;DHT22;34625;47.176;27.548;2023-03-26T08:56:22;21.30;52.70
48806;DHT22;34625;47.176;27.548;2023-03-26T08:59:17;21.40;52.70
48806;DHT22;34625;47.176;27.548;2023-03-26T09:54:01;21.40;52.70
48806;DHT22;34625;47.176;27.548;2023-03-26T10:12:07;21.30;52.90
48806;DHT22;34625;47.176;27.548;2023-03-26T10:32:49;21.30;52.80
48806;DHT22;34625;47.176;27.548;2023-03-26T10:35:25;21.40;52.60
48806;DHT22;34625;47.176;27.548;2023-03-26T10:40:54;21.40;52.80
48806;DHT22;34625;47.176;27.548;2023-03-26T10:48:29;21.40;51.90
48806;DHT22;34625;47.176;27.548;2023-03-26T10:56:06;21.50;52.70
48806;DHT22;34625;47.176;27.548;2023-03-26T10:58:38;21.50;52.60
48806;DHT22;34625;47.176;27.548;2023-03-26T11:03:50;21.50;52.70
48806;DHT22;34625;47.176;27.548;2023-03-26T11:08:55;21.40;52.60
48806;DHT22;34625;47.176;27.548;2023-03-26T11:11:25;21.30;52.70
48806;DHT22;34625;47.176;27.548;2023-03-26T11:19:09;21.30;52.80
48806;DHT22;34625;47.176;27.548;2023-03-26T11:21:39;21.30;52.80
48806;DHT22;34625;47.176;27.548;2023-03-26T11:27:01;21.20;52.90
48806;DHT22;34625;47.176;27.548;2023-03-26T11:29:54;21.40;53.00
48806;DHT22;34625;47.176;27.548;2023-03-26T11:32:18;21.30;53.00
48806;DHT22;34625;47.176;27.548;2023-03-26T11:40:08;21.40;52.80
48806;DHT22;34625;47.176;27.548;2023-03-26T11:42:36;21.30;52.80
48806;DHT22;34625;47.176;27.548;2023-03-26T11:45:04;21.40;52.80
48806;DHT22;34625;47.176;27.548;2023-03-26T11:47:37;21.40;52.80
48806;DHT22;34625;47.176;27.548;2023-03-26T11:50:08;21.50;52.80
48806;DHT22;34625;47.176;27.548;2023-03-26T11:52:35;21.40;52.80
48806;DHT22;34625;47.176;27.548;2023-03-26T11:55:01;21.50;52.10
48806;DHT22;34625;47.176;27.548;2023-03-26T11:57:28;21.50;52.70
48806;DHT22;34625;47.176;27.548;2023-03-26T11:59:57;21.40;52.60
48806;DHT22;34625;47.176;27.548;2023-03-26T12:02:38;21.40;52.70
48806;DHT22;34625;47.176;27.548;2023-03-26T12:07:48;21.40;52.70
48806;DHT22;34625;47.176;27.548;2023-03-26T12:12:47;21.40;52.70
48806;DHT22;34625;47.176;27.548;2023-03-26T12:15:14;21.50;52.80
48806;DHT22;34625;47.176;27.548;2023-03-26T12:17:41;21.40;52.50
48806;DHT22;34625;47.176;27.548;2023-03-26T12:23:01;21.40;52.20
48806;DHT22;34625;47.176;27.548;2023-03-26T12:25:32;21.40;52.80
48806;DHT22;34625;47.176;27.548;2023-03-26T12:28:15;21.40;52.80
48806;DHT22;34625;47.176;27.548;2023-03-26T12:30:49;21.30;52.60
48806;DHT22;34625;47.176;27.548;2023-03-26T12:33:20;21.30;52.90
48806;DHT22;34625;47.176;27.548;2023-03-26T12:35:50;21.40;52.90
48806;DHT22;34625;47.176;27.548;2023-03-26T12:41:09;21.40;52.90
48806;DHT22;34625;47.176;27.548;2023-03-26T12:48:52;21.40;53.00
48806;DHT22;34625;47.176;27.548;2023-03-26T12:56:34;21.50;52.40
48806;DHT22;34625;47.176;27.548;2023-03-26T12:59:12;21.50;52.90
48806;DHT22;34625;47.176;27.548;2023-03-26T13:06:44;21.50;51.20
48806;DHT22;34625;47.176;27.548;2023-03-26T13:16:50;21.10;52.00
48806;DHT22;34625;47.176;27.548;2023-03-26T13:19:23;21.20;52.70
48806;DHT22;34625;47.176;27.548;2023-03-26T13:29:13;21.10;53.50
48806;DHT22;34625;47.176;27.548;2023-03-26T13:47:02;20.90;54.00
48806;DHT22;34625;47.176;27.548;2023-03-26T13:49:35;20.90;54.00
48806;DHT22;34625;47.176;27.548;2023-03-26T13:52:06;20.90;54.10
48806;DHT22;34625;47.176;27.548;2023-03-26T13:54:48;21.00;54.20
48806;DHT22;34625;47.176;27.548;2023-03-26T13:57:24;21.00;54.10
48806;DHT22;34625;47.176;27.548;2023-03-26T13:59:58;21.10;54.10
48806;DHT22;34625;47.176;27.548;2023-03-26T14:02:30;20.90;54.00
48806;DHT22;34625;47.176;27.548;2023-03-26T14:05:20;21.00;54.00
48806;DHT22;34625;47.176;27.548;2023-03-26T14:07:48;21.00;54.10
48806;DHT22;34625;47.176;27.548;2023-03-26T14:10:25;21.00;54.00
48806;DHT22;34625;47.176;27.548;2023-03-26T14:17:52;21.10;54.00
48806;DHT22;34625;47.176;27.548;2023-03-26T14:27:50;20.90;54.10
48806;DHT22;34625;47.176;27.548;2023-03-26T14:30:27;21.00;54.10
48806;DHT22;34625;47.176;27.548;2023-03-26T14:35:36;20.80;54.00
48806;DHT22;34625;47.176;27.548;2023-03-26T14:48:57;20.90;54.20
48806;DHT22;34625;47.176;27.548;2023-03-26T14:54:08;20.90;54.10
48806;DHT22;34625;47.176;27.548;2023-03-26T15:01:36;21.10;53.80
48806;DHT22;34625;47.176;27.548;2023-03-26T15:09:29;21.10;53.50
48806;DHT22;34625;47.176;27.548;2023-03-26T15:14:39;21.20;53.40
48806;DHT22;34625;47.176;27.548;2023-03-26T15:17:18;21.20;53.40
48806;DHT22;34625;47.176;27.548;2023-03-26T15:22:34;21.10;53.30
48806;DHT22;34625;47.176;27.548;2023-03-26T15:27:51;21.10;53.30
48806;DHT22;34625;47.176;27.548;2023-03-26T15:35:33;21.20;53.30
48806;DHT22;34625;47.176;27.548;2023-03-26T15:43:15;21.30;53.40
48806;DHT22;34625;47.176;27.548;2023-03-26T15:45:51;21.20;53.10
48806;DHT22;34625;47.176;27.548;2023-03-26T15:51:15;21.20;53.00
48806;DHT22;34625;47.176;27.548;2023-03-26T15:53:56;21.20;53.00
48806;DHT22;34625;47.176;27.548;2023-03-26T15:56:25;21.20;53.00
48806;DHT22;34625;47.176;27.548;2023-03-26T15:59:06;21.10;53.00
48806;DHT22;34625;47.176;27.548;2023-03-26T16:01:58;21.20;53.00
48806;DHT22;34625;47.176;27.548;2023-03-26T16:07:13;21.20;53.00
48806;DHT22;34625;47.176;27.548;2023-03-26T16:09:58;21.30;53.00
48806;DHT22;34625;47.176;27.548;2023-03-26T16:12:44;21.20;52.90
48806;DHT22;34625;47.176;27.548;2023-03-26T16:15:23;21.10;52.90
48806;DHT22;34625;47.176;27.548;2023-03-26T16:20:44;21.30;53.00
48806;DHT22;34625;47.176;27.548;2023-03-26T16:23:28;21.30;53.00
48806;DHT22;34625;47.176;27.548;2023-03-26T16:25:59;21.40;53.10
48806;DHT22;34625;47.176;27.548;2023-03-26T16:28:36;21.30;53.00
48806;DHT22;34625;47.176;27.548;2023-03-26T16:31:22;21.40;53.10
48806;DHT22;34625;47.176;27.548;2023-03-26T16:36:36;21.30;53.00
48806;DHT22;34625;47.176;27.548;2023-03-26T16:41:32;21.30;53.00
48806;DHT22;34625;47.176;27.548;2023-03-26T16:46:43;21.10;53.30
48806;DHT22;34625;47.176;27.548;2023-03-26T17:02:15;20.90;53.80
48806;DHT22;34625;47.176;27.548;2023-03-26T17:04:43;20.90;53.90
48806;DHT22;34625;47.176;27.548;2023-03-26T17:17:37;20.80;54.30
48806;DHT22;34625;47.176;27.548;2023-03-26T17:20:22;20.70;54.30
48806;DHT22;34625;47.176;27.548;2023-03-26T17:25:52;20.60;54.30
48806;DHT22;34625;47.176;27.548;2023-03-26T17:28:30;20.70;54.50
48806;DHT22;34625;47.176;27.548;2023-03-26T17:33:44;20.80;54.40
48806;DHT22;34625;47.176;27.548;2023-03-26T17:41:01;20.70;54.50
48806;DHT22;34625;47.176;27.548;2023-03-26T17:43:31;20.70;54.40
48806;DHT22;34625;47.176;27.548;2023-03-26T17:45:58;20.60;54.40
48806;DHT22;34625;47.176;27.548;2023-03-26T17:48:25;20.70;54.40
48806;DHT22;34625;47.176;27.548;2023-03-26T17:50:56;20.60;54.40
48806;DHT22;34625;47.176;27.548;2023-03-26T17:53:26;20.70;54.50
48806;DHT22;34625;47.176;27.548;2023-03-26T17:55:52;20.60;54.40
48806;DHT22;34625;47.176;27.548;2023-03-26T18:00:49;20.60;54.50
48806;DHT22;34625;47.176;27.548;2023-03-26T18:03:18;20.60;54.50
48806;DHT22;34625;47.176;27.548;2023-03-26T18:05:45;20.70;54.50
48806;DHT22;34625;47.176;27.548;2023-03-26T18:18:17;20.60;54.70
48806;DHT22;34625;47.176;27.548;2023-03-26T18:20:45;20.40;54.80
48806;DHT22;34625;47.176;27.548;2023-03-26T18:26:20;20.40;54.90
48806;DHT22;34625;47.176;27.548;2023-03-26T18:28:52;20.30;54.90
48806;DHT22;34625;47.176;27.548;2023-03-26T18:33:46;20.40;55.00
48806;DHT22;34625;47.176;27.548;2023-03-26T18:36:13;20.40;55.00
48806;DHT22;34625;47.176;27.548;2023-03-26T18:38:39;20.40;55.10
48806;DHT22;34625;47.176;27.548;2023-03-26T18:41:14;20.40;55.10
48806;DHT22;34625;47.176;27.548;2023-03-26T18:43:41;20.30;55.10
48806;DHT22;34625;47.176;27.548;2023-03-26T18:46:08;20.30;55.00
48806;DHT22;34625;47.176;27.548;2023-03-26T18:48:35;20.40;54.80
48806;DHT22;34625;47.176;27.548;2023-03-26T18:51:02;20.50;54.90
48806;DHT22;34625;47.176;27.548;2023-03-26T18:53:29;20.50;54.80
48806;DHT22;34625;47.176;27.548;2023-03-26T18:55:56;20.40;54.70
48806;DHT22;34625;47.176;27.548;2023-03-26T19:00:48;20.50;54.80
48806;DHT22;34625;47.176;27.548;2023-03-26T19:03:20;20.40;54.70
48806;DHT22;34625;47.176;27.548;2023-03-26T19:05:47;20.40;54.80
48806;DHT22;34625;47.176;27.548;2023-03-26T19:08:13;20.40;54.80
48806;DHT22;34625;47.176;27.548;2023-03-26T19:10:40;20.40;54.90
48806;DHT22;34625;47.176;27.548;2023-03-26T19:13:10;20.40;55.00
48806;DHT22;34625;47.176;27.548;2023-03-26T19:15:37;20.30;55.00
48806;DHT22;34625;47.176;27.548;2023-03-26T19:18:04;20.20;54.90
48806;DHT22;34625;47.176;27.548;2023-03-26T19:20:46;20.30;55.10
48806;DHT22;34625;47.176;27.548;2023-03-26T19:23:20;20.30;55.10
48806;DHT22;34625;47.176;27.548;2023-03-26T19:25:51;20.20;55.00
48806;DHT22;34625;47.176;27.548;2023-03-26T19:28:18;20.30;55.10
48806;DHT22;34625;47.176;27.548;2023-03-26T19:30:44;20.10;55.00
48806;DHT22;34625;47.176;27.548;2023-03-26T19:33:12;20.20;55.20
48806;DHT22;34625;47.176;27.548;2023-03-26T19:35:40;20.10;55.30
48806;DHT22;34625;47.176;27.548;2023-03-26T19:38:17;20.10;55.20
48806;DHT22;34625;47.176;27.548;2023-03-26T19:40:45;20.10;55.20
48806;DHT22;34625;47.176;27.548;2023-03-26T19:43:11;20.10;55.20
48806;DHT22;34625;47.176;27.548;2023-03-26T19:45:38;20.20;55.10
48806;DHT22;34625;47.176;27.548;2023-03-26T19:48:07;20.20;55.10
48806;DHT22;34625;47.176;27.548;2023-03-26T19:50:34;20.20;55.10
48806;DHT22;34625;47.176;27.548;2023-03-26T19:55:36;20.30;55.20
48806;DHT22;34625;47.176;27.548;2023-03-26T19:58:04;20.20;55.00
48806;DHT22;34625;47.176;27.548;2023-03-26T20:00:30;20.30;55.10
48806;DHT22;34625;47.176;27.548;2023-03-26T20:02:56;20.30;55.10
48806;DHT22;34625;47.176;27.548;2023-03-26T20:05:24;20.20;54.90
48806;DHT22;34625;47.176;27.548;2023-03-26T20:07:54;20.30;55.00
48806;DHT22;34625;47.176;27.548;2023-03-26T20:10:21;20.10;55.00
48806;DHT22;34625;47.176;27.548;2023-03-26T20:12:47;20.20;55.00
48806;DHT22;34625;47.176;27.548;2023-03-26T20:15:15;20.20;55.00
48806;DHT22;34625;47.176;27.548;2023-03-26T20:17:42;20.10;55.00
48806;DHT22;34625;47.176;27.548;2023-03-26T20:20:09;20.20;55.10
48806;DHT22;34625;47.176;27.548;2023-03-26T20:22:37;20.10;55.10
48806;DHT22;34625;47.176;27.548;2023-03-26T20:25:12;20.10;55.20
48806;DHT22;34625;47.176;27.548;2023-03-26T20:27:40;20.10;55.30
48806;DHT22;34625;47.176;27.548;2023-03-26T20:30:06;20.00;55.20
48806;DHT22;34625;47.176;27.548;2023-03-26T20:32:32;20.10;55.40
48806;DHT22;34625;47.176;27.548;2023-03-26T20:34:58;20.00;55.40
48806;DHT22;34625;47.176;27.548;2023-03-26T20:37:25;20.00;55.40
48806;DHT22;34625;47.176;27.548;2023-03-26T20:39:50;20.00;55.30
48806;DHT22;34625;47.176;27.548;2023-03-26T20:42:16;20.00;55.40
48806;DHT22;34625;47.176;27.548;2023-03-26T20:44:42;20.00;55.40
48806;DHT22;34625;47.176;27.548;2023-03-26T20:47:09;20.10;55.40
48806;DHT22;34625;47.176;27.548;2023-03-26T20:49:35;20.00;55.40
48806;DHT22;34625;47.176;27.548;2023-03-26T20:52:01;20.00;55.30
48806;DHT22;34625;47.176;27.548;2023-03-26T20:54:27;20.10;55.40
48806;DHT22;34625;47.176;27.548;2023-03-26T20:56:54;20.10;55.40
48806;DHT22;34625;47.176;27.548;2023-03-26T20:59:21;20.00;55.30
48806;DHT22;34625;47.176;27.548;2023-03-26T21:01:51;20.00;55.30
48806;DHT22;34625;47.176;27.548;2023-03-26T21:04:17;20.20;55.40
48806;DHT22;34625;47.176;27.548;2023-03-26T21:06:44;20.00;55.40
48806;DHT22;34625;47.176;27.548;2023-03-26T21:09:13;20.10;55.40
48806;DHT22;34625;47.176;27.548;2023-03-26T21:14:17;20.00;55.30
48806;DHT22;34625;47.176;27.548;2023-03-26T21:16:45;20.00;55.20
48806;DHT22;34625;47.176;27.548;2023-03-26T21:19:11;20.00;55.20
48806;DHT22;34625;47.176;27.548;2023-03-26T21:21:44;20.00;55.30
48806;DHT22;34625;47.176;27.548;2023-03-26T21:24:15;20.00;55.30
48806;DHT22;34625;47.176;27.548;2023-03-26T21:26:47;19.90;55.40
48806;DHT22;34625;47.176;27.548;2023-03-26T21:29:15;20.00;55.40
48806;DHT22;34625;47.176;27.548;2023-03-26T21:31:41;20.00;55.50
48806;DHT22;34625;47.176;27.548;2023-03-26T21:34:07;19.90;55.50
48806;DHT22;34625;47.176;27.548;2023-03-26T21:36:34;19.90;55.60
48806;DHT22;34625;47.176;27.548;2023-03-26T21:39:00;19.90;55.60
48806;DHT22;34625;47.176;27.548;2023-03-26T21:41:31;19.90;55.60
48806;DHT22;34625;47.176;27.548;2023-03-26T21:44:01;19.80;55.50
48806;DHT22;34625;47.176;27.548;2023-03-26T21:46:28;19.90;55.60
48806;DHT22;34625;47.176;27.548;2023-03-26T21:48:54;19.80;55.50
48806;DHT22;34625;47.176;27.548;2023-03-26T21:51:20;19.80;55.60
48806;DHT22;34625;47.176;27.548;2023-03-26T21:53:46;19.80;55.70
48806;DHT22;34625;47.176;27.548;2023-03-26T22:03:52;19.80;55.70
48806;DHT22;34625;47.176;27.548;2023-03-26T22:06:25;19.80;55.70
48806;DHT22;34625;47.176;27.548;2023-03-26T22:08:55;19.80;55.60
48806;DHT22;34625;47.176;27.548;2023-03-26T22:11:21;19.90;55.60
48806;DHT22;34625;47.176;27.548;2023-03-26T22:13:47;19.80;55.60
48806;DHT22;34625;47.176;27.548;2023-03-26T22:16:13;19.90;55.70
48806;DHT22;34625;47.176;27.548;2023-03-26T22:18:41;20.00;55.60